sensor_id;sensor_type;location;lat;lon;timestamp;pressure;altitude;pressure_sealevel;temperature;humidity
69145;BME280;56251;50.324;17.574;2024-03-02T00:01:54;101040.77;;;13.80;71.42
69145;BME280;56251;50.324;17.574;2024-03-02T00:02:18;101036.12;;;13.78;71.42
69145;BME280;56251;50.324;17.574;2024-03-02T00:05:01;101033.96;;;13.82;71.20
69145;BME280;56251;50.324;17.574;2024-03-02T00:05:25;101029.48;;;13.86;71.04
69145;BME280;56251;50.324;17.574;2024-03-02T00:08:07;101033.69;;;13.47;71.36
69145;BME280;56251;50.324;17.574;2024-03-02T00:08:31;101028.05;;;13.55;71.27
69145;BME280;56251;50.324;17.574;2024-03-02T00:11:14;101032.74;;;13.55;70.92
69145;BME280;56251;50.324;17.574;2024-03-02T00:11:38;101034.76;;;13.56;70.86
69145;BME280;56251;50.324;17.574;2024-03-02T00:14:29;101037.48;;;13.35;71.03
69145;BME280;56251;50.324;17.574;2024-03-02T00:14:45;101038.38;;;13.33;71.08
69145;BME280;56251;50.324;17.574;2024-03-02T00:17:35;101038.52;;;13.31;71.06
69145;BME280;56251;50.324;17.574;2024-03-02T00:17:54;101039.10;;;13.26;71.11
69145;BME280;56251;50.324;17.574;2024-03-02T00:20:42;101037.85;;;13.09;71.46
69145;BME280;56251;50.324;17.574;2024-03-02T00:21:06;101041.61;;;13.00;71.53
69145;BME280;56251;50.324;17.574;2024-03-02T00:23:48;101047.09;;;12.99;71.61
69145;BME280;56251;50.324;17.574;2024-03-02T00:24:31;101046.72;;;13.03;71.47
69145;BME280;56251;50.324;17.574;2024-03-02T00:26:56;101043.46;;;12.76;72.00
69145;BME280;56251;50.324;17.574;2024-03-02T00:27:29;101048.66;;;12.76;72.10
69145;BME280;56251;50.324;17.574;2024-03-02T00:30:46;101042.65;;;12.68;72.11
69145;BME280;56251;50.324;17.574;2024-03-02T00:33:30;101048.06;;;12.51;72.45
69145;BME280;56251;50.324;17.574;2024-03-02T00:33:49;101046.44;;;12.51;72.55
69145;BME280;56251;50.324;17.574;2024-03-02T00:36:35;101045.88;;;12.50;72.63
69145;BME280;56251;50.324;17.574;2024-03-02T00:36:59;101050.07;;;12.44;72.78
69145;BME280;56251;50.324;17.574;2024-03-02T00:39:42;101055.80;;;12.39;72.85
69145;BME280;56251;50.324;17.574;2024-03-02T00:40:07;101054.98;;;12.41;72.83
69145;BME280;56251;50.324;17.574;2024-03-02T00:42:48;101052.89;;;12.36;73.00
69145;BME280;56251;50.324;17.574;2024-03-02T00:45:55;101049.56;;;12.30;73.12
69145;BME280;56251;50.324;17.574;2024-03-02T00:46:46;101050.63;;;12.32;73.11
69145;BME280;56251;50.324;17.574;2024-03-02T00:49:05;101052.24;;;12.18;73.31
69145;BME280;56251;50.324;17.574;2024-03-02T00:49:53;101055.25;;;12.14;73.48
69145;BME280;56251;50.324;17.574;2024-03-02T00:52:12;101049.86;;;11.93;74.18
69145;BME280;56251;50.324;17.574;2024-03-02T00:52:59;101050.75;;;12.09;73.94
69145;BME280;56251;50.324;17.574;2024-03-02T00:55:19;101048.72;;;12.13;73.89
69145;BME280;56251;50.324;17.574;2024-03-02T00:56:11;101050.89;;;12.04;73.96
69145;BME280;56251;50.324;17.574;2024-03-02T00:58:26;101048.90;;;11.91;74.45
69145;BME280;56251;50.324;17.574;2024-03-02T00:59:22;101044.12;;;11.68;74.87
69145;BME280;56251;50.324;17.574;2024-03-02T01:01:33;101042.66;;;11.72;75.18
69145;BME280;56251;50.324;17.574;2024-03-02T01:02:29;101040.64;;;11.75;75.15
69145;BME280;56251;50.324;17.574;2024-03-02T01:04:40;101040.27;;;11.95;74.53
69145;BME280;56251;50.324;17.574;2024-03-02T01:05:35;101044.23;;;11.90;74.38
69145;BME280;56251;50.324;17.574;2024-03-02T01:07:47;101036.16;;;11.73;74.83
69145;BME280;56251;50.324;17.574;2024-03-02T01:08:41;101035.19;;;11.71;74.94
69145;BME280;56251;50.324;17.574;2024-03-02T01:10:53;101036.10;;;11.72;74.99
69145;BME280;56251;50.324;17.574;2024-03-02T01:11:48;101034.80;;;11.78;74.89
69145;BME280;56251;50.324;17.574;2024-03-02T01:14:01;101038.55;;;11.82;74.73
69145;BME280;56251;50.324;17.574;2024-03-02T01:14:54;101040.72;;;11.87;74.53
69145;BME280;56251;50.324;17.574;2024-03-02T01:17:07;101036.89;;;11.71;74.57
69145;BME280;56251;50.324;17.574;2024-03-02T01:18:01;101036.63;;;11.64;74.85
69145;BME280;56251;50.324;17.574;2024-03-02T01:20:14;101043.90;;;11.47;75.37
69145;BME280;56251;50.324;17.574;2024-03-02T01:21:07;101038.19;;;11.59;75.34
69145;BME280;56251;50.324;17.574;2024-03-02T01:23:20;101035.27;;;11.60;75.27
69145;BME280;56251;50.324;17.574;2024-03-02T01:24:14;101028.86;;;11.53;75.40
69145;BME280;56251;50.324;17.574;2024-03-02T01:26:26;101030.51;;;11.71;75.06
69145;BME280;56251;50.324;17.574;2024-03-02T01:27:20;101028.11;;;11.64;74.97
69145;BME280;56251;50.324;17.574;2024-03-02T01:29:33;101026.66;;;11.76;74.49
69145;BME280;56251;50.324;17.574;2024-03-02T01:30:27;101026.98;;;11.78;74.35
69145;BME280;56251;50.324;17.574;2024-03-02T01:32:39;101022.38;;;11.77;74.08
69145;BME280;56251;50.324;17.574;2024-03-02T01:33:33;101018.61;;;11.74;74.00
69145;BME280;56251;50.324;17.574;2024-03-02T01:35:45;101019.87;;;11.74;73.72
69145;BME280;56251;50.324;17.574;2024-03-02T01:36:40;101018.91;;;11.81;73.36
69145;BME280;56251;50.324;17.574;2024-03-02T01:38:52;101016.95;;;11.81;72.95
69145;BME280;56251;50.324;17.574;2024-03-02T01:39:46;101017.70;;;11.66;73.10
69145;BME280;56251;50.324;17.574;2024-03-02T01:41:59;101014.03;;;11.65;72.94
69145;BME280;56251;50.324;17.574;2024-03-02T01:42:53;101015.99;;;11.66;72.72
69145;BME280;56251;50.324;17.574;2024-03-02T01:45:06;101015.27;;;11.52;72.98
69145;BME280;56251;50.324;17.574;2024-03-02T01:46:06;101015.80;;;11.59;72.62
69145;BME280;56251;50.324;17.574;2024-03-02T01:48:13;101019.05;;;11.55;72.58
69145;BME280;56251;50.324;17.574;2024-03-02T01:49:12;101014.21;;;11.50;72.69
69145;BME280;56251;50.324;17.574;2024-03-02T01:51:25;101013.26;;;11.41;72.76
69145;BME280;56251;50.324;17.574;2024-03-02T01:52:19;101010.03;;;11.51;72.64
69145;BME280;56251;50.324;17.574;2024-03-02T01:54:31;101007.38;;;11.37;73.02
69145;BME280;56251;50.324;17.574;2024-03-02T01:55:26;101009.41;;;11.30;73.14
69145;BME280;56251;50.324;17.574;2024-03-02T01:57:38;101009.14;;;11.31;73.10
69145;BME280;56251;50.324;17.574;2024-03-02T01:58:34;101011.23;;;11.33;73.07
69145;BME280;56251;50.324;17.574;2024-03-02T02:00:44;101012.02;;;11.36;72.92
69145;BME280;56251;50.324;17.574;2024-03-02T02:01:41;101018.80;;;11.21;73.21
69145;BME280;56251;50.324;17.574;2024-03-02T02:03:51;101020.10;;;11.24;73.15
69145;BME280;56251;50.324;17.574;2024-03-02T02:04:47;101020.65;;;11.25;73.19
69145;BME280;56251;50.324;17.574;2024-03-02T02:06:57;101021.55;;;11.07;73.92
69145;BME280;56251;50.324;17.574;2024-03-02T02:07:58;101020.45;;;11.07;73.93
69145;BME280;56251;50.324;17.574;2024-03-02T02:10:04;101021.21;;;11.11;73.91
69145;BME280;56251;50.324;17.574;2024-03-02T02:11:05;101019.39;;;11.05;74.02
69145;BME280;56251;50.324;17.574;2024-03-02T02:13:10;101016.95;;;10.78;74.69
69145;BME280;56251;50.324;17.574;2024-03-02T02:14:11;101015.83;;;10.65;75.31
69145;BME280;56251;50.324;17.574;2024-03-02T02:16:17;101018.85;;;10.71;75.50
69145;BME280;56251;50.324;17.574;2024-03-02T02:17:18;101020.81;;;10.76;75.55
69145;BME280;56251;50.324;17.574;2024-03-02T02:19:23;101023.09;;;10.86;75.27
69145;BME280;56251;50.324;17.574;2024-03-02T02:20:25;101027.30;;;10.83;75.31
69145;BME280;56251;50.324;17.574;2024-03-02T02:22:29;101026.86;;;10.96;74.94
69145;BME280;56251;50.324;17.574;2024-03-02T02:23:31;101022.42;;;11.02;74.82
69145;BME280;56251;50.324;17.574;2024-03-02T02:25:35;101019.66;;;10.91;74.64
69145;BME280;56251;50.324;17.574;2024-03-02T02:26:37;101020.44;;;10.91;74.74
69145;BME280;56251;50.324;17.574;2024-03-02T02:28:42;101016.98;;;11.06;74.34
69145;BME280;56251;50.324;17.574;2024-03-02T02:29:44;101017.48;;;10.89;74.65
69145;BME280;56251;50.324;17.574;2024-03-02T02:31:55;101022.05;;;10.95;74.79
69145;BME280;56251;50.324;17.574;2024-03-02T02:32:50;101020.43;;;10.95;74.58
69145;BME280;56251;50.324;17.574;2024-03-02T02:35:01;101017.94;;;10.96;74.51
69145;BME280;56251;50.324;17.574;2024-03-02T02:35:56;101016.38;;;10.93;74.48
69145;BME280;56251;50.324;17.574;2024-03-02T02:38:08;101015.66;;;10.87;74.56
69145;BME280;56251;50.324;17.574;2024-03-02T02:39:04;101017.01;;;10.75;74.90
69145;BME280;56251;50.324;17.574;2024-03-02T02:41:14;101013.32;;;10.68;75.09
69145;BME280;56251;50.324;17.574;2024-03-02T02:42:10;101014.55;;;10.65;75.29
69145;BME280;56251;50.324;17.574;2024-03-02T02:44:21;101010.41;;;10.69;75.22
69145;BME280;56251;50.324;17.574;2024-03-02T02:45:16;101011.88;;;10.67;75.27
69145;BME280;56251;50.324;17.574;2024-03-02T02:47:27;101017.56;;;10.85;74.66
69145;BME280;56251;50.324;17.574;2024-03-02T02:48:23;101018.48;;;10.73;74.77
69145;BME280;56251;50.324;17.574;2024-03-02T02:50:35;101014.61;;;10.67;74.98
69145;BME280;56251;50.324;17.574;2024-03-02T02:51:29;101011.42;;;10.60;75.19
69145;BME280;56251;50.324;17.574;2024-03-02T02:53:41;101007.55;;;10.62;75.25
69145;BME280;56251;50.324;17.574;2024-03-02T02:54:37;101010.52;;;10.59;75.33
69145;BME280;56251;50.324;17.574;2024-03-02T02:56:48;101012.29;;;10.77;74.93
69145;BME280;56251;50.324;17.574;2024-03-02T02:57:49;101005.88;;;10.74;74.95
69145;BME280;56251;50.324;17.574;2024-03-02T02:59:54;101013.24;;;10.67;75.18
69145;BME280;56251;50.324;17.574;2024-03-02T03:00:55;101014.41;;;10.82;74.81
69145;BME280;56251;50.324;17.574;2024-03-02T03:03:01;101014.76;;;10.85;74.18
69145;BME280;56251;50.324;17.574;2024-03-02T03:04:02;101010.28;;;10.84;74.14
69145;BME280;56251;50.324;17.574;2024-03-02T03:06:07;101015.95;;;10.81;73.99
69145;BME280;56251;50.324;17.574;2024-03-02T03:07:09;101016.48;;;10.88;73.64
69145;BME280;56251;50.324;17.574;2024-03-02T03:09:13;101021.77;;;10.92;73.17
69145;BME280;56251;50.324;17.574;2024-03-02T03:10:15;101019.44;;;10.72;73.65
69145;BME280;56251;50.324;17.574;2024-03-02T03:12:20;101021.47;;;10.72;73.86
69145;BME280;56251;50.324;17.574;2024-03-02T03:13:22;101020.43;;;10.78;73.81
69145;BME280;56251;50.324;17.574;2024-03-02T03:15:26;101019.02;;;10.81;73.79
69145;BME280;56251;50.324;17.574;2024-03-02T03:16:29;101011.94;;;10.86;73.77
69145;BME280;56251;50.324;17.574;2024-03-02T03:18:33;101014.16;;;10.81;73.96
69145;BME280;56251;50.324;17.574;2024-03-02T03:19:35;101014.74;;;10.82;74.09
69145;BME280;56251;50.324;17.574;2024-03-02T03:21:39;101015.36;;;10.85;73.93
69145;BME280;56251;50.324;17.574;2024-03-02T03:22:43;101014.66;;;10.77;74.16
69145;BME280;56251;50.324;17.574;2024-03-02T03:24:45;101011.45;;;10.67;74.54
69145;BME280;56251;50.324;17.574;2024-03-02T03:25:49;101016.89;;;10.58;75.01
69145;BME280;56251;50.324;17.574;2024-03-02T03:27:52;101015.33;;;10.70;75.02
69145;BME280;56251;50.324;17.574;2024-03-02T03:28:56;101012.77;;;10.70;75.11
69145;BME280;56251;50.324;17.574;2024-03-02T03:30:58;101018.05;;;10.69;75.24
69145;BME280;56251;50.324;17.574;2024-03-02T03:32:02;101018.04;;;10.74;75.25
69145;BME280;56251;50.324;17.574;2024-03-02T03:34:05;101019.96;;;10.76;75.75
69145;BME280;56251;50.324;17.574;2024-03-02T03:35:10;101017.33;;;10.67;76.09
69145;BME280;56251;50.324;17.574;2024-03-02T03:37:11;101020.06;;;10.71;76.32
69145;BME280;56251;50.324;17.574;2024-03-02T03:38:18;101018.23;;;10.77;76.22
69145;BME280;56251;50.324;17.574;2024-03-02T03:40:17;101017.95;;;10.78;76.14
69145;BME280;56251;50.324;17.574;2024-03-02T03:41:25;101019.66;;;10.78;76.16
69145;BME280;56251;50.324;17.574;2024-03-02T03:43:25;101020.72;;;10.76;76.29
69145;BME280;56251;50.324;17.574;2024-03-02T03:44:31;101022.42;;;10.81;76.22
69145;BME280;56251;50.324;17.574;2024-03-02T03:46:37;101027.33;;;10.86;76.14
69145;BME280;56251;50.324;17.574;2024-03-02T03:47:43;101024.34;;;10.91;75.94
69145;BME280;56251;50.324;17.574;2024-03-02T03:49:44;101022.88;;;10.96;75.82
69145;BME280;56251;50.324;17.574;2024-03-02T03:50:50;101027.70;;;10.93;75.79
69145;BME280;56251;50.324;17.574;2024-03-02T03:52:50;101027.65;;;10.91;75.76
69145;BME280;56251;50.324;17.574;2024-03-02T03:53:56;101024.87;;;10.99;75.68
69145;BME280;56251;50.324;17.574;2024-03-02T03:55:56;101027.02;;;10.71;76.07
69145;BME280;56251;50.324;17.574;2024-03-02T03:57:02;101028.12;;;10.58;76.46
69145;BME280;56251;50.324;17.574;2024-03-02T03:59:03;101026.90;;;10.64;76.71
69145;BME280;56251;50.324;17.574;2024-03-02T04:00:09;101025.20;;;10.69;76.55
69145;BME280;56251;50.324;17.574;2024-03-02T04:02:10;101027.52;;;10.72;76.52
69145;BME280;56251;50.324;17.574;2024-03-02T04:03:16;101029.14;;;10.80;76.45
69145;BME280;56251;50.324;17.574;2024-03-02T04:05:23;101028.54;;;10.85;76.35
69145;BME280;56251;50.324;17.574;2024-03-02T04:06:23;101032.28;;;10.94;75.91
69145;BME280;56251;50.324;17.574;2024-03-02T04:08:29;101025.82;;;10.81;75.93
69145;BME280;56251;50.324;17.574;2024-03-02T04:09:29;101030.95;;;10.83;76.04
69145;BME280;56251;50.324;17.574;2024-03-02T04:11:36;101031.93;;;10.98;75.83
69145;BME280;56251;50.324;17.574;2024-03-02T04:12:36;101033.54;;;11.07;75.56
69145;BME280;56251;50.324;17.574;2024-03-02T04:14:42;101037.65;;;11.14;75.25
69145;BME280;56251;50.324;17.574;2024-03-02T04:15:42;101036.69;;;11.15;75.30
69145;BME280;56251;50.324;17.574;2024-03-02T04:17:49;101042.48;;;11.19;75.17
69145;BME280;56251;50.324;17.574;2024-03-02T04:18:49;101043.03;;;11.17;75.15
69145;BME280;56251;50.324;17.574;2024-03-02T04:20:55;101040.70;;;11.19;75.02
69145;BME280;56251;50.324;17.574;2024-03-02T04:21:55;101045.22;;;11.30;74.84
69145;BME280;56251;50.324;17.574;2024-03-02T04:24:02;101048.77;;;11.27;74.75
69145;BME280;56251;50.324;17.574;2024-03-02T04:25:01;101048.13;;;11.21;74.82
69145;BME280;56251;50.324;17.574;2024-03-02T04:27:09;101051.12;;;11.17;74.79
69145;BME280;56251;50.324;17.574;2024-03-02T04:28:10;101051.40;;;11.11;75.04
69145;BME280;56251;50.324;17.574;2024-03-02T04:30:15;101056.28;;;11.22;74.96
69145;BME280;56251;50.324;17.574;2024-03-02T04:31:18;101052.41;;;11.25;74.72
69145;BME280;56251;50.324;17.574;2024-03-02T04:33:21;101051.00;;;11.27;74.49
69145;BME280;56251;50.324;17.574;2024-03-02T04:34:24;101053.60;;;11.16;74.62
69145;BME280;56251;50.324;17.574;2024-03-02T04:36:28;101056.11;;;11.14;74.68
69145;BME280;56251;50.324;17.574;2024-03-02T04:37:34;101057.01;;;11.20;74.44
69145;BME280;56251;50.324;17.574;2024-03-02T04:39:35;101057.52;;;11.24;74.31
69145;BME280;56251;50.324;17.574;2024-03-02T04:40:41;101059.50;;;11.23;74.28
69145;BME280;56251;50.324;17.574;2024-03-02T04:42:42;101063.83;;;11.19;74.17
69145;BME280;56251;50.324;17.574;2024-03-02T04:43:47;101063.48;;;11.20;74.09
69145;BME280;56251;50.324;17.574;2024-03-02T04:45:48;101064.08;;;11.23;73.58
69145;BME280;56251;50.324;17.574;2024-03-02T04:46:54;101074.84;;;11.17;73.71
69145;BME280;56251;50.324;17.574;2024-03-02T04:48:55;101071.78;;;11.08;73.90
69145;BME280;56251;50.324;17.574;2024-03-02T04:50:01;101073.92;;;10.99;74.10
69145;BME280;56251;50.324;17.574;2024-03-02T04:52:02;101080.45;;;11.04;74.02
69145;BME280;56251;50.324;17.574;2024-03-02T04:53:07;101082.27;;;11.02;74.16
69145;BME280;56251;50.324;17.574;2024-03-02T04:55:14;101085.68;;;11.15;73.65
69145;BME280;56251;50.324;17.574;2024-03-02T04:56:13;101083.97;;;11.20;73.61
69145;BME280;56251;50.324;17.574;2024-03-02T04:58:25;101082.52;;;11.03;74.16
69145;BME280;56251;50.324;17.574;2024-03-02T04:59:39;101080.35;;;11.01;74.23
69145;BME280;56251;50.324;17.574;2024-03-02T05:01:32;101073.67;;;11.03;74.54
69145;BME280;56251;50.324;17.574;2024-03-02T05:02:46;101071.93;;;10.96;74.66
69145;BME280;56251;50.324;17.574;2024-03-02T05:04:39;101068.20;;;10.78;75.31
69145;BME280;56251;50.324;17.574;2024-03-02T05:05:52;101071.77;;;10.83;75.44
69145;BME280;56251;50.324;17.574;2024-03-02T05:07:47;101072.04;;;10.95;75.31
69145;BME280;56251;50.324;17.574;2024-03-02T05:08:58;101071.93;;;11.14;74.91
69145;BME280;56251;50.324;17.574;2024-03-02T05:10:54;101075.13;;;11.15;74.62
69145;BME280;56251;50.324;17.574;2024-03-02T05:12:05;101070.55;;;11.11;74.77
69145;BME280;56251;50.324;17.574;2024-03-02T05:14:00;101070.91;;;11.18;74.61
69145;BME280;56251;50.324;17.574;2024-03-02T05:15:32;101069.88;;;11.23;74.63
69145;BME280;56251;50.324;17.574;2024-03-02T05:17:08;101069.20;;;11.31;74.33
69145;BME280;56251;50.324;17.574;2024-03-02T05:18:39;101069.27;;;11.15;74.43
69145;BME280;56251;50.324;17.574;2024-03-02T05:20:14;101074.53;;;11.11;74.72
69145;BME280;56251;50.324;17.574;2024-03-02T05:21:45;101071.63;;;11.07;74.54
69145;BME280;56251;50.324;17.574;2024-03-02T05:23:21;101073.55;;;11.18;74.44
69145;BME280;56251;50.324;17.574;2024-03-02T05:24:52;101074.23;;;11.18;74.27
69145;BME280;56251;50.324;17.574;2024-03-02T05:26:27;101072.59;;;11.15;74.35
69145;BME280;56251;50.324;17.574;2024-03-02T05:27:58;101074.01;;;11.20;74.22
69145;BME280;56251;50.324;17.574;2024-03-02T05:29:33;101075.44;;;11.12;74.28
69145;BME280;56251;50.324;17.574;2024-03-02T05:31:05;101078.94;;;11.12;74.32
69145;BME280;56251;50.324;17.574;2024-03-02T05:32:39;101072.63;;;11.13;74.12
69145;BME280;56251;50.324;17.574;2024-03-02T05:34:11;101074.61;;;11.16;73.96
69145;BME280;56251;50.324;17.574;2024-03-02T05:35:46;101078.02;;;11.15;73.79
69145;BME280;56251;50.324;17.574;2024-03-02T05:37:18;101080.31;;;11.24;73.53
69145;BME280;56251;50.324;17.574;2024-03-02T05:38:52;101077.43;;;11.28;73.14
69145;BME280;56251;50.324;17.574;2024-03-02T05:40:25;101082.16;;;11.21;73.07
69145;BME280;56251;50.324;17.574;2024-03-02T05:41:58;101079.76;;;11.22;73.13
69145;BME280;56251;50.324;17.574;2024-03-02T05:43:32;101077.16;;;11.28;72.93
69145;BME280;56251;50.324;17.574;2024-03-02T05:45:05;101079.43;;;11.26;72.86
69145;BME280;56251;50.324;17.574;2024-03-02T05:46:38;101076.69;;;11.30;72.84
69145;BME280;56251;50.324;17.574;2024-03-02T05:48:11;101080.70;;;11.26;72.91
69145;BME280;56251;50.324;17.574;2024-03-02T05:49:45;101082.91;;;11.26;73.05
69145;BME280;56251;50.324;17.574;2024-03-02T05:51:18;101083.30;;;11.32;72.88
69145;BME280;56251;50.324;17.574;2024-03-02T05:52:51;101085.32;;;11.21;73.03
69145;BME280;56251;50.324;17.574;2024-03-02T05:54:24;101088.78;;;11.30;73.06
69145;BME280;56251;50.324;17.574;2024-03-02T05:55:58;101087.73;;;11.28;72.93
69145;BME280;56251;50.324;17.574;2024-03-02T05:57:31;101086.42;;;11.33;72.90
69145;BME280;56251;50.324;17.574;2024-03-02T05:59:04;101088.38;;;11.33;72.98
69145;BME280;56251;50.324;17.574;2024-03-02T06:00:47;101091.21;;;11.32;72.90
69145;BME280;56251;50.324;17.574;2024-03-02T06:02:19;101094.17;;;11.29;73.13
69145;BME280;56251;50.324;17.574;2024-03-02T06:03:56;101095.59;;;11.26;73.32
69145;BME280;56251;50.324;17.574;2024-03-02T06:05:26;101094.09;;;11.16;73.57
69145;BME280;56251;50.324;17.574;2024-03-02T06:07:09;101095.96;;;11.37;73.32
69145;BME280;56251;50.324;17.574;2024-03-02T06:08:32;101099.27;;;11.37;73.12
69145;BME280;56251;50.324;17.574;2024-03-02T06:10:15;101100.27;;;11.25;73.62
69145;BME280;56251;50.324;17.574;2024-03-02T06:11:40;101101.27;;;11.23;74.08
69145;BME280;56251;50.324;17.574;2024-03-02T06:13:22;101106.06;;;11.38;73.98
69145;BME280;56251;50.324;17.574;2024-03-02T06:14:52;101106.40;;;11.25;74.09
69145;BME280;56251;50.324;17.574;2024-03-02T06:16:28;101109.02;;;11.39;74.09
69145;BME280;56251;50.324;17.574;2024-03-02T06:17:59;101112.02;;;11.34;74.08
69145;BME280;56251;50.324;17.574;2024-03-02T06:19:35;101108.61;;;11.38;73.96
69145;BME280;56251;50.324;17.574;2024-03-02T06:21:06;101110.26;;;11.32;74.17
69145;BME280;56251;50.324;17.574;2024-03-02T06:22:42;101107.88;;;11.32;74.31
69145;BME280;56251;50.324;17.574;2024-03-02T06:24:12;101106.31;;;11.30;74.46
69145;BME280;56251;50.324;17.574;2024-03-02T06:25:49;101108.58;;;11.36;74.47
69145;BME280;56251;50.324;17.574;2024-03-02T06:27:18;101106.50;;;11.48;74.11
69145;BME280;56251;50.324;17.574;2024-03-02T06:28:55;101106.06;;;11.49;73.99
69145;BME280;56251;50.324;17.574;2024-03-02T06:30:26;101103.75;;;11.45;74.09
69145;BME280;56251;50.324;17.574;2024-03-02T06:32:01;101101.05;;;11.48;74.08
69145;BME280;56251;50.324;17.574;2024-03-02T06:33:33;101095.51;;;11.57;73.67
69145;BME280;56251;50.324;17.574;2024-03-02T06:35:08;101094.02;;;11.51;73.74
69145;BME280;56251;50.324;17.574;2024-03-02T06:36:39;101095.63;;;11.51;73.91
69145;BME280;56251;50.324;17.574;2024-03-02T06:38:16;101095.37;;;11.55;73.93
69145;BME280;56251;50.324;17.574;2024-03-02T06:39:48;101097.87;;;11.70;73.59
69145;BME280;56251;50.324;17.574;2024-03-02T06:41:22;101100.30;;;11.72;73.34
69145;BME280;56251;50.324;17.574;2024-03-02T06:42:54;101102.95;;;11.63;73.47
69145;BME280;56251;50.324;17.574;2024-03-02T06:44:29;101106.80;;;11.74;73.04
69145;BME280;56251;50.324;17.574;2024-03-02T06:46:01;101110.80;;;11.74;72.87
69145;BME280;56251;50.324;17.574;2024-03-02T06:47:35;101112.98;;;11.76;72.66
69145;BME280;56251;50.324;17.574;2024-03-02T06:49:07;101111.87;;;11.68;72.66
69145;BME280;56251;50.324;17.574;2024-03-02T06:50:42;101118.27;;;11.63;72.93
69145;BME280;56251;50.324;17.574;2024-03-02T06:52:16;101117.23;;;11.64;73.03
69145;BME280;56251;50.324;17.574;2024-03-02T06:53:48;101117.44;;;11.58;73.21
69145;BME280;56251;50.324;17.574;2024-03-02T06:55:22;101116.46;;;11.52;73.43
69145;BME280;56251;50.324;17.574;2024-03-02T06:56:55;101117.28;;;11.62;73.46
69145;BME280;56251;50.324;17.574;2024-03-02T06:58:30;101119.80;;;11.51;73.63
69145;BME280;56251;50.324;17.574;2024-03-02T07:00:01;101124.47;;;11.55;73.78
69145;BME280;56251;50.324;17.574;2024-03-02T07:01:37;101124.34;;;11.54;73.87
69145;BME280;56251;50.324;17.574;2024-03-02T07:03:10;101121.30;;;11.61;73.85
69145;BME280;56251;50.324;17.574;2024-03-02T07:04:43;101123.94;;;11.65;73.81
69145;BME280;56251;50.324;17.574;2024-03-02T07:06:17;101119.42;;;11.65;73.88
69145;BME280;56251;50.324;17.574;2024-03-02T07:07:51;101118.60;;;11.64;74.01
69145;BME280;56251;50.324;17.574;2024-03-02T07:09:23;101113.00;;;11.71;74.02
69145;BME280;56251;50.324;17.574;2024-03-02T07:10:58;101118.89;;;11.79;73.98
69145;BME280;56251;50.324;17.574;2024-03-02T07:12:30;101124.44;;;11.87;73.71
69145;BME280;56251;50.324;17.574;2024-03-02T07:14:05;101129.52;;;11.88;73.85
69145;BME280;56251;50.324;17.574;2024-03-02T07:15:37;101133.62;;;11.95;73.86
69145;BME280;56251;50.324;17.574;2024-03-02T07:17:12;101131.55;;;11.92;74.01
69145;BME280;56251;50.324;17.574;2024-03-02T07:18:57;101129.67;;;12.07;73.96
69145;BME280;56251;50.324;17.574;2024-03-02T07:20:19;101130.86;;;12.11;73.81
69145;BME280;56251;50.324;17.574;2024-03-02T07:22:06;101132.07;;;12.18;73.87
69145;BME280;56251;50.324;17.574;2024-03-02T07:23:25;101132.67;;;12.22;73.75
69145;BME280;56251;50.324;17.574;2024-03-02T07:25:13;101129.04;;;12.27;73.79
69145;BME280;56251;50.324;17.574;2024-03-02T07:26:33;101136.51;;;12.18;73.86
69145;BME280;56251;50.324;17.574;2024-03-02T07:28:20;101134.96;;;12.33;73.92
69145;BME280;56251;50.324;17.574;2024-03-02T07:29:41;101138.09;;;12.44;73.85
69145;BME280;56251;50.324;17.574;2024-03-02T07:31:26;101136.62;;;12.58;73.73
69145;BME280;56251;50.324;17.574;2024-03-02T07:32:50;101132.96;;;12.71;73.55
69145;BME280;56251;50.324;17.574;2024-03-02T07:34:33;101128.87;;;12.78;73.39
69145;BME280;56251;50.324;17.574;2024-03-02T07:35:56;101131.77;;;12.87;73.17
69145;BME280;56251;50.324;17.574;2024-03-02T07:37:40;101133.56;;;12.94;73.06
69145;BME280;56251;50.324;17.574;2024-03-02T07:39:02;101138.07;;;12.94;73.10
69145;BME280;56251;50.324;17.574;2024-03-02T07:40:47;101136.79;;;13.01;73.11
69145;BME280;56251;50.324;17.574;2024-03-02T07:42:09;101136.50;;;13.09;73.03
69145;BME280;56251;50.324;17.574;2024-03-02T07:44:01;101138.37;;;13.15;72.84
69145;BME280;56251;50.324;17.574;2024-03-02T07:45:15;101136.50;;;13.15;72.87
69145;BME280;56251;50.324;17.574;2024-03-02T07:47:10;101144.04;;;13.24;72.77
69145;BME280;56251;50.324;17.574;2024-03-02T07:48:22;101142.55;;;13.32;72.73
69145;BME280;56251;50.324;17.574;2024-03-02T07:50:17;101143.53;;;13.40;72.65
69145;BME280;56251;50.324;17.574;2024-03-02T07:51:29;101142.22;;;13.34;72.63
69145;BME280;56251;50.324;17.574;2024-03-02T07:53:23;101145.24;;;13.45;72.49
69145;BME280;56251;50.324;17.574;2024-03-02T07:54:35;101147.87;;;13.57;72.37
69145;BME280;56251;50.324;17.574;2024-03-02T07:56:30;101149.08;;;13.62;72.14
69145;BME280;56251;50.324;17.574;2024-03-02T07:57:42;101148.58;;;13.71;71.94
69145;BME280;56251;50.324;17.574;2024-03-02T07:59:37;101151.83;;;13.73;71.81
69145;BME280;56251;50.324;17.574;2024-03-02T08:00:49;101148.42;;;13.79;71.70
69145;BME280;56251;50.324;17.574;2024-03-02T08:02:44;101144.14;;;13.82;71.42
69145;BME280;56251;50.324;17.574;2024-03-02T08:03:59;101141.58;;;13.91;71.49
69145;BME280;56251;50.324;17.574;2024-03-02T08:05:50;101142.41;;;13.97;71.27
69145;BME280;56251;50.324;17.574;2024-03-02T08:07:09;101143.73;;;14.07;71.17